createdAt,value
2017-07-16T00:01:19.392Z,9.20
2017-07-16T00:04:04.615Z,9.20
2017-07-16T00:06:36.092Z,9.20
2017-07-16T00:09:25.840Z,9.30
2017-07-16T00:11:55.740Z,9.40
2017-07-16T00:14:25.660Z,9.40
2017-07-16T00:17:05.424Z,9.40
2017-07-16T00:19:37.435Z,9.40
2017-07-16T00:22:15.307Z,9.40
2017-07-16T00:24:43.332Z,9.40
2017-07-16T00:27:25.839Z,9.30
2017-07-16T00:32:56.710Z,9.30
2017-07-16T00:35:24.726Z,9.30
2017-07-16T00:37:58.562Z,9.30
2017-07-16T00:40:26.582Z,9.30
2017-07-16T00:43:19.063Z,9.20
2017-07-16T00:45:47.863Z,9.00
2017-07-16T00:48:16.776Z,9.00
2017-07-16T00:50:48.085Z,8.90
2017-07-16T00:53:16.858Z,8.80
2017-07-16T00:55:50.303Z,8.80
2017-07-16T00:58:20.251Z,8.80
2017-07-16T01:00:48.257Z,8.90
2017-07-16T01:03:19.471Z,8.90
2017-07-16T01:05:48.454Z,9.00
2017-07-16T01:08:26.106Z,9.10
2017-07-16T01:10:54.118Z,9.10
2017-07-16T01:13:22.127Z,9.00
2017-07-16T01:15:52.058Z,9.10
2017-07-16T01:18:23.079Z,9.10
2017-07-16T01:20:53.810Z,9.10
2017-07-16T01:23:21.829Z,9.10
2017-07-16T01:25:49.850Z,9.10
2017-07-16T01:28:18.762Z,9.10
2017-07-16T01:30:55.075Z,8.90
2017-07-16T01:33:26.210Z,8.80
2017-07-16T01:35:56.238Z,8.70
2017-07-16T01:38:26.150Z,8.60
2017-07-16T01:40:55.059Z,8.60
2017-07-16T01:43:24.966Z,8.70
2017-07-16T01:45:52.998Z,8.70
2017-07-16T01:48:21.007Z,8.70
2017-07-16T01:50:56.846Z,8.70
2017-07-16T01:53:24.858Z,8.50
2017-07-16T01:55:58.526Z,8.50
2017-07-16T01:58:26.546Z,8.60
2017-07-16T02:00:55.462Z,8.60
2017-07-16T02:03:25.378Z,8.40
2017-07-16T02:05:53.393Z,8.30
2017-07-16T02:08:23.309Z,8.30
2017-07-16T02:10:53.218Z,8.40
2017-07-16T02:13:24.758Z,8.40
2017-07-16T02:16:03.180Z,8.60
2017-07-16T02:18:31.191Z,8.60
2017-07-16T02:20:59.205Z,8.60
2017-07-16T02:23:44.265Z,8.70
2017-07-16T02:26:13.173Z,8.70
2017-07-16T02:28:44.997Z,8.70
2017-07-16T02:31:13.905Z,8.70
2017-07-16T02:33:41.917Z,8.70
2017-07-16T02:36:11.840Z,8.70
2017-07-16T02:38:41.805Z,8.70
2017-07-16T02:41:09.841Z,8.70
2017-07-16T02:43:41.344Z,8.70
2017-07-16T02:46:10.140Z,8.50
2017-07-16T02:48:42.504Z,8.40
2017-07-16T02:51:12.190Z,8.30
2017-07-16T02:53:41.185Z,8.30
2017-07-16T02:56:24.393Z,8.30
2017-07-16T02:59:00.371Z,8.20
2017-07-16T03:01:41.780Z,8.30
2017-07-16T03:04:17.868Z,8.20
2017-07-16T03:06:49.772Z,8.20
2017-07-16T03:09:21.336Z,8.20
2017-07-16T03:11:53.987Z,8.20
2017-07-16T03:14:22.012Z,8.30
2017-07-16T03:16:58.324Z,8.40
2017-07-16T03:19:26.344Z,8.50
2017-07-16T03:22:11.570Z,8.70
2017-07-16T03:24:43.455Z,8.80
2017-07-16T03:27:16.496Z,8.80
2017-07-16T03:29:49.503Z,8.80
2017-07-16T03:32:23.075Z,8.80
2017-07-16T03:34:51.088Z,8.80
2017-07-16T03:37:24.431Z,8.90
2017-07-16T03:42:52.782Z,9.00
2017-07-16T03:45:24.618Z,9.00
2017-07-16T03:47:56.486Z,9.10
2017-07-16T03:50:24.503Z,9.30
2017-07-16T03:52:56.623Z,9.30
2017-07-16T03:55:24.639Z,9.40
2017-07-16T03:57:54.551Z,9.60
2017-07-16T04:00:24.470Z,9.70
2017-07-16T04:02:53.400Z,9.80
2017-07-16T04:05:21.416Z,9.90
2017-07-16T04:07:49.452Z,10.00
2017-07-16T04:10:21.027Z,10.10
2017-07-16T04:12:51.752Z,10.40
2017-07-16T04:15:24.507Z,10.40
2017-07-16T04:18:10.754Z,10.50
2017-07-16T04:20:38.779Z,10.60
2017-07-16T04:23:08.571Z,10.60
2017-07-16T04:25:44.879Z,10.70
2017-07-16T04:28:12.910Z,10.80
2017-07-16T04:30:45.663Z,10.90
2017-07-16T04:33:13.679Z,11.10
2017-07-16T04:35:44.947Z,11.30
2017-07-16T04:38:12.967Z,11.40
2017-07-16T04:40:51.103Z,11.50
2017-07-16T04:43:23.675Z,11.60
2017-07-16T04:45:51.703Z,11.70
2017-07-16T04:48:24.746Z,11.90
2017-07-16T04:51:13.643Z,12.20
2017-07-16T04:53:41.663Z,12.20
2017-07-16T04:56:23.532Z,12.50
2017-07-16T04:58:53.559Z,12.50
2017-07-16T05:01:21.582Z,12.70
2017-07-16T05:03:55.034Z,12.80
2017-07-16T05:06:23.939Z,12.90
2017-07-16T05:08:52.867Z,13.00
2017-07-16T05:11:20.887Z,13.00
2017-07-16T05:13:50.796Z,13.00
2017-07-16T05:16:23.560Z,13.10
2017-07-16T05:18:55.235Z,13.00
2017-07-16T05:21:23.299Z,13.00
2017-07-16T05:23:55.591Z,13.00
2017-07-16T05:26:24.548Z,13.00
2017-07-16T05:28:56.024Z,13.00
2017-07-16T05:31:24.076Z,13.10
2017-07-16T05:33:53.012Z,13.10
2017-07-16T05:36:21.911Z,13.10
2017-07-16T05:38:56.263Z,13.20
2017-07-16T05:41:24.296Z,13.50
2017-07-16T05:43:52.320Z,14.20
2017-07-16T05:46:22.292Z,14.90
2017-07-16T05:48:50.323Z,15.40
2017-07-16T05:51:19.224Z,16.00
2017-07-16T05:53:49.236Z,16.50
2017-07-16T05:56:18.925Z,17.40
2017-07-16T05:58:47.828Z,17.30
2017-07-16T06:01:22.544Z,17.70
2017-07-16T06:03:50.566Z,17.80
2017-07-16T06:06:19.504Z,18.40
2017-07-16T06:08:49.447Z,18.50
2017-07-16T06:11:17.467Z,18.60
2017-07-16T06:13:45.514Z,18.80
2017-07-16T06:16:23.371Z,19.00
2017-07-16T06:18:51.479Z,19.10
2017-07-16T06:21:20.586Z,19.10
2017-07-16T06:23:49.519Z,19.30
2017-07-16T06:26:17.531Z,19.70
2017-07-16T06:28:49.150Z,19.80
2017-07-16T06:31:17.172Z,19.90
2017-07-16T06:33:47.118Z,19.90
2017-07-16T06:36:19.275Z,19.80
2017-07-16T06:38:51.796Z,20.00
2017-07-16T06:41:24.418Z,20.10
2017-07-16T06:43:52.443Z,20.10
2017-07-16T06:46:21.218Z,20.60
2017-07-16T06:48:50.029Z,20.80
2017-07-16T06:51:19.989Z,20.80
2017-07-16T06:53:58.410Z,21.00
2017-07-16T06:56:26.427Z,20.80
2017-07-16T06:58:55.365Z,20.60
2017-07-16T07:01:26.683Z,20.60
2017-07-16T07:03:58.063Z,20.60
2017-07-16T07:06:32.458Z,20.90
2017-07-16T07:09:02.407Z,21.10
2017-07-16T07:11:31.314Z,21.10
2017-07-16T07:14:01.255Z,21.10
2017-07-16T07:16:41.018Z,21.20
2017-07-16T07:19:12.100Z,21.50
2017-07-16T07:21:40.107Z,21.70
2017-07-16T07:24:11.614Z,21.40
2017-07-16T07:26:40.551Z,21.40
2017-07-16T07:29:23.247Z,21.60
2017-07-16T07:31:52.923Z,21.60
2017-07-16T07:34:42.467Z,21.60
2017-07-16T07:37:16.747Z,21.90
2017-07-16T07:40:10.651Z,21.90
2017-07-16T07:42:47.037Z,22.10
2017-07-16T07:45:33.390Z,22.00
2017-07-16T07:48:03.350Z,22.10
2017-07-16T07:50:33.290Z,22.40
2017-07-16T07:53:02.199Z,22.70
2017-07-16T07:55:32.117Z,23.00
2017-07-16T07:58:01.774Z,23.60
2017-07-16T08:00:33.666Z,23.60
2017-07-16T08:03:03.674Z,23.80
2017-07-16T08:05:31.679Z,23.70
2017-07-16T08:08:05.310Z,24.00
2017-07-16T08:10:39.559Z,24.00
2017-07-16T08:13:12.533Z,23.90
2017-07-16T08:15:46.942Z,24.20
2017-07-16T08:18:14.949Z,24.70
2017-07-16T08:20:42.939Z,24.80
2017-07-16T08:23:18.433Z,24.20
2017-07-16T08:25:46.454Z,23.80
2017-07-16T08:28:16.354Z,23.50
2017-07-16T08:30:46.258Z,23.40
2017-07-16T08:33:15.162Z,23.50
2017-07-16T08:35:43.945Z,22.80
2017-07-16T08:38:11.981Z,22.80
2017-07-16T08:40:39.990Z,22.30
2017-07-16T08:43:10.669Z,22.10
2017-07-16T08:45:44.957Z,22.10
2017-07-16T08:48:14.869Z,22.20
2017-07-16T08:50:43.816Z,22.10
2017-07-16T08:53:11.864Z,21.60
2017-07-16T08:55:39.871Z,21.00
2017-07-16T08:58:08.852Z,20.40
2017-07-16T09:00:41.044Z,20.30
2017-07-16T09:03:15.442Z,21.30
2017-07-16T09:05:44.359Z,22.00
2017-07-16T09:08:14.136Z,23.00
2017-07-16T09:10:44.182Z,23.00
2017-07-16T09:13:17.232Z,22.50
2017-07-16T09:18:44.659Z,20.70
2017-07-16T09:21:22.915Z,20.70
2017-07-16T09:23:57.511Z,20.30
2017-07-16T09:26:36.253Z,20.50
2017-07-16T09:29:18.402Z,21.20
2017-07-16T09:31:55.506Z,24.50
2017-07-16T09:34:23.563Z,24.50
2017-07-16T09:36:52.427Z,26.00
2017-07-16T09:39:25.194Z,26.10
2017-07-16T09:41:56.923Z,26.30
2017-07-16T09:44:28.586Z,26.60
2017-07-16T09:47:02.987Z,27.50
2017-07-16T09:49:31.022Z,28.10
2017-07-16T09:52:07.314Z,28.30
2017-07-16T09:54:37.270Z,28.30
2017-07-16T09:57:13.606Z,27.00
2017-07-16T09:59:42.647Z,25.60
2017-07-16T10:02:17.042Z,23.80
2017-07-16T10:04:46.043Z,23.80
2017-07-16T10:07:15.039Z,23.50
2017-07-16T10:09:47.677Z,23.50
2017-07-16T10:12:15.719Z,24.10
2017-07-16T10:14:44.675Z,24.30
2017-07-16T10:17:12.694Z,24.80
2017-07-16T10:19:40.707Z,25.20
2017-07-16T10:22:08.733Z,25.10
2017-07-16T10:24:40.424Z,26.00
2017-07-16T10:27:09.343Z,27.10
2017-07-16T10:29:39.034Z,27.40
2017-07-16T10:32:07.082Z,27.40
2017-07-16T10:34:36.006Z,27.10
2017-07-16T10:37:04.915Z,27.20
2017-07-16T10:39:35.026Z,27.20
2017-07-16T10:42:04.926Z,27.20
2017-07-16T10:44:35.622Z,27.20
2017-07-16T10:47:05.443Z,27.60
2017-07-16T10:49:34.474Z,28.30
2017-07-16T10:52:05.325Z,29.00
2017-07-16T10:54:38.272Z,30.10
2017-07-16T10:57:08.202Z,30.00
2017-07-16T10:59:38.116Z,29.90
2017-07-16T11:02:07.030Z,30.10
2017-07-16T11:04:36.714Z,30.60
2017-07-16T11:07:04.738Z,30.50
2017-07-16T11:09:37.986Z,32.20
2017-07-16T11:12:06.771Z,33.30
2017-07-16T11:14:37.485Z,32.00
2017-07-16T11:17:05.507Z,31.90
2017-07-16T11:19:44.961Z,29.40
2017-07-16T11:22:12.985Z,27.00
2017-07-16T11:24:41.906Z,25.80
2017-07-16T11:27:14.168Z,25.20
2017-07-16T11:29:42.175Z,26.10
2017-07-16T11:32:10.190Z,27.20
2017-07-16T11:34:39.170Z,27.90
2017-07-16T11:37:08.082Z,28.30
2017-07-16T11:39:38.058Z,28.80
2017-07-16T11:42:06.101Z,28.20
2017-07-16T11:44:46.638Z,27.30
2017-07-16T11:47:17.749Z,26.40
2017-07-16T11:49:46.718Z,26.20
2017-07-16T11:52:16.734Z,26.60
2017-07-16T11:54:53.181Z,27.80
2017-07-16T11:57:21.221Z,29.40
2017-07-16T12:00:02.349Z,30.70
2017-07-16T12:02:30.373Z,32.10
2017-07-16T12:04:59.320Z,33.60
2017-07-16T12:07:27.325Z,33.80
2017-07-16T12:09:56.263Z,33.00
2017-07-16T12:12:24.277Z,31.60
2017-07-16T12:14:54.069Z,28.10
2017-07-16T12:17:23.019Z,28.00
2017-07-16T12:19:51.017Z,28.20
2017-07-16T12:22:19.997Z,29.00
2017-07-16T12:24:48.905Z,29.50
2017-07-16T12:27:16.930Z,30.30
2017-07-16T12:29:48.393Z,31.10
2017-07-16T12:32:17.418Z,32.00
2017-07-16T12:34:45.434Z,31.50
2017-07-16T12:37:13.458Z,31.10
2017-07-16T12:39:42.381Z,30.50
2017-07-16T12:42:10.411Z,29.70
2017-07-16T12:44:39.350Z,28.70
2017-07-16T12:47:10.358Z,28.10
2017-07-16T12:49:38.377Z,27.80
2017-07-16T12:52:13.134Z,27.40
2017-07-16T12:54:43.874Z,27.10
2017-07-16T12:57:22.522Z,26.50
2017-07-16T12:59:55.418Z,27.00
2017-07-16T13:02:30.743Z,27.00
2017-07-16T13:04:58.766Z,29.00
2017-07-16T13:07:31.303Z,29.50
2017-07-16T13:10:03.945Z,29.60
2017-07-16T13:12:32.017Z,30.80
2017-07-16T13:15:00.029Z,32.40
2017-07-16T13:17:28.965Z,31.90
2017-07-16T13:19:57.005Z,30.90
2017-07-16T13:22:25.025Z,30.60
2017-07-16T13:24:54.014Z,31.30
2017-07-16T13:27:28.002Z,31.60
2017-07-16T13:29:58.942Z,32.80
2017-07-16T13:32:32.553Z,32.60
2017-07-16T13:35:07.765Z,33.00
2017-07-16T13:37:36.871Z,32.10
2017-07-16T13:40:05.870Z,32.70
2017-07-16T13:42:33.886Z,33.10
2017-07-16T13:45:01.916Z,33.80
2017-07-16T13:47:34.997Z,32.90
2017-07-16T13:50:08.657Z,32.00
2017-07-16T13:52:40.257Z,31.40
2017-07-16T13:55:18.545Z,31.80
2017-07-16T13:57:54.089Z,32.70
2017-07-16T14:00:23.238Z,34.20
2017-07-16T14:03:13.337Z,34.70
2017-07-16T14:05:45.473Z,34.60
2017-07-16T14:08:15.381Z,33.80
2017-07-16T14:10:44.303Z,33.90
2017-07-16T14:13:13.085Z,32.40
2017-07-16T14:15:43.221Z,32.90
2017-07-16T14:18:15.381Z,32.90
2017-07-16T14:20:44.525Z,34.20
2017-07-16T14:23:13.492Z,34.70
2017-07-16T14:25:45.054Z,34.10
2017-07-16T14:28:16.616Z,34.50
2017-07-16T14:30:49.125Z,33.70
2017-07-16T14:33:19.029Z,32.20
2017-07-16T14:35:47.053Z,32.00
2017-07-16T14:38:15.992Z,32.90
2017-07-16T14:40:47.253Z,33.30
2017-07-16T14:43:18.824Z,33.80
2017-07-16T14:45:48.785Z,33.30
2017-07-16T14:48:16.805Z,32.80
2017-07-16T14:50:45.617Z,29.80
2017-07-16T14:53:17.144Z,29.70
2017-07-16T14:55:48.608Z,29.60
2017-07-16T14:58:16.641Z,30.70
2017-07-16T15:00:47.789Z,32.30
2017-07-16T15:03:21.364Z,31.40
2017-07-16T15:05:49.404Z,29.80
2017-07-16T15:08:20.668Z,28.90
2017-07-16T15:10:58.941Z,27.90
2017-07-16T15:13:42.424Z,27.60
2017-07-16T15:16:14.221Z,27.30
2017-07-16T15:18:44.104Z,27.10
2017-07-16T15:21:13.021Z,27.10
2017-07-16T15:23:52.007Z,26.80
2017-07-16T15:26:28.364Z,26.80
2017-07-16T15:28:58.341Z,27.00
2017-07-16T15:31:28.308Z,27.30
2017-07-16T15:33:57.308Z,28.10
2017-07-16T15:36:28.868Z,28.00
2017-07-16T15:38:59.676Z,28.10
2017-07-16T15:41:31.048Z,28.60
2017-07-16T15:43:59.963Z,30.00
2017-07-16T15:46:32.104Z,31.00
2017-07-16T15:49:00.128Z,30.80
2017-07-16T15:51:28.144Z,30.30
2017-07-16T15:53:58.157Z,30.30
2017-07-16T15:56:27.072Z,29.70
2017-07-16T15:58:59.320Z,28.20
2017-07-16T16:01:28.244Z,28.10
2017-07-16T16:03:57.168Z,27.70
2017-07-16T16:06:37.523Z,27.40
2017-07-16T16:09:06.449Z,27.50
2017-07-16T16:11:37.819Z,27.30
2017-07-16T16:14:09.250Z,27.40
2017-07-16T16:16:51.180Z,27.80
2017-07-16T16:19:21.148Z,27.70
2017-07-16T16:21:50.067Z,28.30
2017-07-16T16:24:26.087Z,28.20
2017-07-16T16:27:02.740Z,28.20
2017-07-16T16:29:30.792Z,28.50
2017-07-16T16:32:00.759Z,27.80
2017-07-16T16:34:28.775Z,27.30
2017-07-16T16:37:00.518Z,27.40
2017-07-16T16:39:34.083Z,28.10
2017-07-16T16:42:10.344Z,28.10
2017-07-16T16:44:42.824Z,28.30
2017-07-16T16:47:11.824Z,29.00
2017-07-16T16:49:40.727Z,29.20
2017-07-16T16:52:12.837Z,27.90
2017-07-16T16:54:48.075Z,27.80
2017-07-16T16:57:21.018Z,27.30
2017-07-16T17:00:02.239Z,26.40
2017-07-16T17:02:34.131Z,26.30
2017-07-16T17:05:03.116Z,26.30
2017-07-16T17:07:36.322Z,26.20
2017-07-16T17:10:10.652Z,26.30
2017-07-16T17:12:40.587Z,26.20
2017-07-16T17:15:08.623Z,25.70
2017-07-16T17:17:40.667Z,25.40
2017-07-16T17:20:10.699Z,25.20
2017-07-16T17:22:40.430Z,24.60
2017-07-16T17:25:09.339Z,24.60
2017-07-16T17:27:41.375Z,24.50
2017-07-16T17:30:11.387Z,24.50
2017-07-16T17:32:39.626Z,24.40
2017-07-16T17:35:20.604Z,24.60
2017-07-16T17:37:58.287Z,24.80
2017-07-16T17:40:32.863Z,25.00
2017-07-16T17:43:04.624Z,24.80
2017-07-16T17:45:38.111Z,26.00
2017-07-16T17:48:07.024Z,26.00
2017-07-16T17:50:36.701Z,26.10
2017-07-16T17:53:12.460Z,26.10
2017-07-16T17:55:46.123Z,25.60
2017-07-16T17:58:15.060Z,25.50
2017-07-16T18:00:43.871Z,25.00
2017-07-16T18:03:13.551Z,24.70
2017-07-16T18:05:43.605Z,24.60
2017-07-16T18:08:25.807Z,24.40
2017-07-16T18:10:54.764Z,24.10
2017-07-16T18:13:22.815Z,23.90
2017-07-16T18:15:54.104Z,23.70
2017-07-16T18:18:34.410Z,23.60
2017-07-16T18:21:08.327Z,23.50
2017-07-16T18:23:36.343Z,23.40
2017-07-16T18:26:05.351Z,23.20
2017-07-16T18:28:36.559Z,23.10
2017-07-16T18:31:08.099Z,23.00
2017-07-16T18:33:38.143Z,22.90
2017-07-16T18:36:06.164Z,22.90
2017-07-16T18:38:38.824Z,22.80
2017-07-16T18:41:06.847Z,22.80
2017-07-16T18:43:39.920Z,22.60
2017-07-16T18:46:10.138Z,22.60
2017-07-16T18:48:38.187Z,22.50
2017-07-16T18:51:06.503Z,22.40
2017-07-16T18:53:38.250Z,22.40
2017-07-16T18:56:12.967Z,22.30
2017-07-16T18:58:41.763Z,22.10
2017-07-16T19:01:14.019Z,22.10
2017-07-16T19:03:43.055Z,22.00
2017-07-16T19:06:15.202Z,21.80
2017-07-16T19:08:45.982Z,21.60
2017-07-16T19:11:15.939Z,21.60
2017-07-16T19:13:43.971Z,21.50
2017-07-16T19:16:12.034Z,21.40
2017-07-16T19:18:42.050Z,21.40
2017-07-16T19:21:12.143Z,21.40
2017-07-16T19:23:43.430Z,21.50
2017-07-16T19:26:11.466Z,21.40
2017-07-16T19:28:45.269Z,21.40
2017-07-16T19:31:13.302Z,21.40
2017-07-16T19:33:41.305Z,21.40
2017-07-16T19:36:11.234Z,21.30
2017-07-16T19:38:41.333Z,21.30
2017-07-16T19:41:11.018Z,21.30
2017-07-16T19:43:42.350Z,21.30
2017-07-16T19:46:10.374Z,21.20
2017-07-16T19:48:40.393Z,21.20
2017-07-16T19:51:09.309Z,21.10
2017-07-16T19:53:38.335Z,21.00
2017-07-16T19:56:06.341Z,20.90
2017-07-16T19:58:35.286Z,20.80
2017-07-16T20:01:03.324Z,20.90
2017-07-16T20:03:31.370Z,20.90
2017-07-16T20:06:05.157Z,20.80
2017-07-16T20:08:50.337Z,20.70
2017-07-16T20:11:21.556Z,20.70
2017-07-16T20:13:56.266Z,20.60
2017-07-16T20:16:34.672Z,20.60
2017-07-16T20:19:02.700Z,20.60
2017-07-16T20:21:30.723Z,20.50
2017-07-16T20:24:02.680Z,20.40
2017-07-16T20:26:30.700Z,20.40
2017-07-16T20:29:09.861Z,20.40
2017-07-16T20:31:41.748Z,20.40
2017-07-16T20:34:14.385Z,20.30
2017-07-16T20:36:42.409Z,20.30
2017-07-16T20:39:13.125Z,20.20
2017-07-16T20:41:47.856Z,20.20
2017-07-16T20:47:15.754Z,20.10
2017-07-16T20:49:43.796Z,20.10
2017-07-16T20:52:17.324Z,20.00
2017-07-16T20:54:52.739Z,20.10
2017-07-16T20:57:20.764Z,20.00
2017-07-16T20:59:49.739Z,20.10
2017-07-16T21:02:20.487Z,20.10
2017-07-16T21:04:52.959Z,20.10
2017-07-16T21:07:21.936Z,20.10
2017-07-16T21:09:55.116Z,19.90
2017-07-16T21:12:25.139Z,19.90
2017-07-16T21:14:58.307Z,19.80
2017-07-16T21:17:49.695Z,19.80
2017-07-16T21:20:19.656Z,19.70
2017-07-16T21:22:50.434Z,19.70
2017-07-16T21:25:20.387Z,19.70
2017-07-16T21:27:48.403Z,19.70
2017-07-16T21:30:19.495Z,19.70
2017-07-16T21:32:49.506Z,19.70
2017-07-16T21:35:19.561Z,19.60
2017-07-16T21:37:50.269Z,19.50
2017-07-16T21:40:25.788Z,19.50
2017-07-16T21:43:07.484Z,19.60
2017-07-16T21:45:36.707Z,19.60
2017-07-16T21:48:06.715Z,19.50
2017-07-16T21:50:35.920Z,19.50
2017-07-16T21:53:07.272Z,19.50
2017-07-16T21:55:37.301Z,19.50
2017-07-16T21:58:08.012Z,19.50
2017-07-16T22:00:40.009Z,19.50
2017-07-16T22:03:13.620Z,19.50
2017-07-16T22:05:52.901Z,19.50
2017-07-16T22:08:21.896Z,19.50
2017-07-16T22:10:49.929Z,19.60
2017-07-16T22:13:31.541Z,19.50
2017-07-16T22:16:01.464Z,19.50
2017-07-16T22:18:40.909Z,19.50
2017-07-16T22:21:14.633Z,19.40
2017-07-16T22:23:43.433Z,19.40
2017-07-16T22:29:06.505Z,19.40
2017-07-16T22:31:38.845Z,19.40
2017-07-16T22:34:07.848Z,19.30
2017-07-16T22:36:38.892Z,19.20
2017-07-16T22:39:08.901Z,19.10
2017-07-16T22:41:44.614Z,19.00
2017-07-16T22:44:19.210Z,19.00
2017-07-16T22:46:48.173Z,18.90
2017-07-16T22:49:18.184Z,18.90
2017-07-16T22:51:47.174Z,18.90
2017-07-16T22:54:19.954Z,18.90
2017-07-16T22:56:51.530Z,18.80
2017-07-16T22:59:20.498Z,18.70
2017-07-16T23:01:48.517Z,18.60
2017-07-16T23:04:22.382Z,18.50
2017-07-16T23:06:55.870Z,18.40
2017-07-16T23:09:24.874Z,18.30
2017-07-16T23:11:56.822Z,18.20
2017-07-16T23:14:26.842Z,18.10
2017-07-16T23:16:56.878Z,18.00
2017-07-16T23:19:25.873Z,17.90
2017-07-16T23:22:05.045Z,17.80
2017-07-16T23:24:36.454Z,17.70
2017-07-16T23:27:08.078Z,17.60
2017-07-16T23:29:36.123Z,17.50
2017-07-16T23:32:20.534Z,17.40
2017-07-16T23:34:53.498Z,17.30
2017-07-16T23:37:33.722Z,17.10
2017-07-16T23:40:04.714Z,17.00
2017-07-16T23:42:35.618Z,16.80
2017-07-16T23:45:07.914Z,16.80
2017-07-16T23:47:35.933Z,16.80
2017-07-16T23:50:07.936Z,16.70
2017-07-16T23:52:37.929Z,16.60
2017-07-16T23:55:06.935Z,16.40
2017-07-16T23:57:38.737Z,16.20
